createdAt,value
2022-09-06T00:01:16.563Z,9.50
2022-09-06T00:03:43.759Z,11.88
2022-09-06T00:06:14.536Z,9.50
2022-09-06T00:08:43.242Z,15.48
2022-09-06T00:11:10.299Z,12.88
2022-09-06T00:13:37.693Z,14.80
2022-09-06T00:16:19.599Z,11.10
2022-09-06T00:18:46.684Z,8.57
2022-09-06T00:21:19.728Z,14.35
2022-09-06T00:23:46.447Z,12.75
2022-09-06T00:26:13.161Z,12.37
2022-09-06T00:28:40.005Z,9.25
2022-09-06T00:31:25.556Z,11.48
2022-09-06T00:33:52.469Z,9.10
2022-09-06T00:36:20.696Z,10.13
2022-09-06T00:38:47.530Z,9.50
2022-09-06T00:41:16.083Z,11.35
2022-09-06T00:43:43.371Z,13.95
2022-09-06T00:46:17.132Z,14.43
2022-09-06T00:48:49.070Z,12.18
2022-09-06T00:51:19.750Z,13.57
2022-09-06T00:53:46.680Z,10.15
2022-09-06T00:56:14.022Z,13.13
2022-09-06T00:58:40.713Z,13.05
2022-09-06T01:01:07.404Z,13.20
2022-09-06T01:03:35.730Z,14.45
2022-09-06T01:09:31.550Z,21.12
2022-09-06T01:16:35.574Z,15.57
2022-09-06T01:21:01.381Z,14.27
2022-09-06T01:25:34.154Z,19.15
2022-09-06T01:28:38.792Z,13.48
2022-09-06T01:31:38.049Z,12.32
2022-09-06T01:36:23.581Z,12.02
2022-09-06T01:38:50.393Z,14.20
2022-09-06T01:41:16.916Z,14.07
2022-09-06T01:43:47.931Z,36.20
2022-09-06T01:51:08.027Z,50.63
2022-09-06T01:56:38.763Z,12.85
2022-09-06T02:00:16.426Z,12.75
2022-09-06T02:03:59.862Z,12.55
2022-09-06T02:06:43.215Z,20.85
2022-09-06T02:09:21.091Z,93.72
2022-09-06T02:11:58.941Z,37.50
2022-09-06T02:14:43.270Z,18.65
2022-09-06T02:17:17.382Z,30.83
2022-09-06T02:20:33.096Z,77.53
2022-09-06T02:23:05.151Z,209.75
2022-09-06T02:25:43.434Z,231.63
2022-09-06T02:28:10.519Z,149.55
2022-09-06T02:30:44.094Z,135.37
2022-09-06T02:33:17.961Z,60.38
2022-09-06T02:35:52.222Z,35.70
2022-09-06T02:38:23.424Z,46.05
2022-09-06T02:40:53.704Z,37.03
2022-09-06T02:43:21.010Z,22.92
2022-09-06T02:45:47.624Z,12.00
2022-09-06T02:48:14.163Z,24.05
2022-09-06T02:50:40.698Z,13.62
2022-09-06T02:53:16.350Z,15.15
2022-09-06T02:55:44.984Z,30.80
2022-09-06T02:58:11.945Z,23.25
2022-09-06T03:00:38.727Z,34.90
2022-09-06T03:03:05.308Z,10.93
2022-09-06T03:05:32.483Z,11.32
2022-09-06T03:07:59.049Z,18.08
2022-09-06T03:10:25.746Z,29.67
2022-09-06T03:12:52.874Z,13.30
2022-09-06T03:15:19.735Z,13.02
2022-09-06T03:17:46.270Z,9.05
2022-09-06T03:20:13.365Z,14.27
2022-09-06T03:22:40.694Z,14.27
2022-09-06T03:25:09.315Z,15.02
2022-09-06T03:27:36.355Z,53.28
2022-09-06T03:30:04.991Z,29.92
2022-09-06T03:32:31.523Z,54.05
2022-09-06T03:34:58.899Z,60.10
2022-09-06T03:37:25.437Z,68.85
2022-09-06T03:39:51.975Z,53.58
2022-09-06T03:42:18.530Z,79.90
2022-09-06T03:44:45.146Z,76.95
2022-09-06T03:47:11.679Z,55.00
2022-09-06T03:49:38.738Z,18.83
2022-09-06T03:52:05.672Z,27.65
2022-09-06T03:54:32.187Z,17.10
2022-09-06T03:56:58.710Z,24.40
2022-09-06T03:59:25.289Z,23.12
2022-09-06T04:01:51.846Z,21.33
2022-09-06T04:04:18.364Z,25.48
2022-09-06T04:06:44.880Z,18.85
2022-09-06T04:09:11.414Z,20.58
2022-09-06T04:11:37.917Z,20.10
2022-09-06T04:14:04.430Z,11.95
2022-09-06T04:16:30.964Z,15.63
2022-09-06T04:18:59.768Z,13.70
2022-09-06T04:21:27.102Z,17.33
2022-09-06T04:23:53.674Z,19.58
2022-09-06T04:26:20.200Z,19.27
2022-09-06T04:28:46.970Z,22.42
2022-09-06T04:31:13.504Z,22.90
2022-09-06T04:33:41.022Z,16.62
2022-09-06T04:36:10.791Z,13.43
2022-09-06T04:38:41.325Z,17.05
2022-09-06T04:41:10.922Z,11.85
2022-09-06T04:43:37.699Z,39.42
2022-09-06T04:46:21.090Z,14.25
2022-09-06T04:48:52.216Z,11.93
2022-09-06T04:51:19.174Z,19.90
2022-09-06T04:53:45.961Z,30.30
2022-09-06T04:56:19.208Z,38.45
2022-09-06T04:58:47.663Z,35.63
2022-09-06T05:01:15.022Z,20.25
2022-09-06T05:03:41.836Z,12.90
2022-09-06T05:06:26.580Z,11.27
2022-09-06T05:08:53.125Z,11.80
2022-09-06T05:11:19.944Z,12.52
2022-09-06T05:13:47.054Z,18.60
2022-09-06T05:16:13.702Z,12.65
2022-09-06T05:18:40.278Z,14.50
2022-09-06T05:21:06.960Z,24.27
2022-09-06T05:23:33.718Z,28.40
2022-09-06T05:26:00.237Z,79.75
2022-09-06T05:28:26.884Z,36.38
2022-09-06T05:30:53.586Z,26.17
2022-09-06T05:33:22.126Z,26.95
2022-09-06T05:35:49.253Z,16.23
2022-09-06T05:38:15.896Z,24.20
2022-09-06T05:40:42.644Z,22.25
2022-09-06T05:43:09.225Z,18.73
2022-09-06T05:45:35.883Z,25.50
2022-09-06T05:48:02.991Z,17.60
2022-09-06T05:50:29.505Z,17.33
2022-09-06T05:52:56.034Z,12.85
2022-09-06T05:55:22.727Z,13.13
2022-09-06T05:57:49.250Z,16.00
2022-09-06T06:00:16.069Z,14.57
2022-09-06T06:02:47.127Z,17.80
2022-09-06T06:05:14.108Z,17.70
2022-09-06T06:07:40.607Z,12.55
2022-09-06T06:10:07.602Z,12.10
2022-09-06T06:12:34.125Z,15.07
2022-09-06T06:15:00.669Z,15.27
2022-09-06T06:17:27.326Z,15.70
2022-09-06T06:19:54.077Z,17.50
2022-09-06T06:22:20.590Z,13.77
2022-09-06T06:24:47.118Z,12.10
2022-09-06T06:27:13.633Z,13.75
2022-09-06T06:29:40.207Z,16.10
2022-09-06T06:32:06.797Z,19.98
2022-09-06T06:34:33.410Z,11.12
2022-09-06T06:36:59.916Z,14.15
2022-09-06T06:39:26.539Z,12.18
2022-09-06T06:41:53.083Z,15.25
2022-09-06T06:44:19.612Z,16.23
2022-09-06T06:46:46.149Z,15.57
2022-09-06T06:49:12.685Z,14.15
2022-09-06T06:51:39.245Z,13.23
2022-09-06T06:54:06.186Z,17.00
2022-09-06T06:56:40.278Z,15.93
2022-09-06T06:59:07.355Z,17.37
2022-09-06T07:01:36.558Z,12.98
2022-09-06T07:04:04.807Z,13.88
2022-09-06T07:12:38.750Z,16.75
2022-09-06T07:15:06.134Z,13.98
2022-09-06T07:17:33.901Z,13.30
2022-09-06T07:20:16.313Z,12.95
2022-09-06T07:22:43.287Z,16.08
2022-09-06T07:25:13.426Z,11.48
2022-09-06T07:30:13.432Z,12.30
2022-09-06T07:32:39.951Z,12.85
2022-09-06T07:35:07.508Z,12.65
2022-09-06T07:37:34.004Z,13.43
2022-09-06T07:40:00.609Z,14.23
2022-09-06T07:42:27.210Z,20.25
2022-09-06T07:44:56.975Z,17.80
2022-09-06T07:53:23.332Z,11.95
2022-09-06T07:55:52.729Z,13.40
2022-09-06T07:58:19.262Z,13.40
2022-09-06T08:00:45.819Z,14.48
2022-09-06T08:03:12.396Z,16.48
2022-09-06T08:11:34.526Z,12.07
2022-09-06T08:14:04.201Z,11.43
2022-09-06T08:16:33.606Z,12.77
2022-09-06T08:19:04.113Z,15.13
2022-09-06T08:21:32.579Z,16.95
2022-09-06T08:24:06.269Z,11.60
2022-09-06T08:26:35.972Z,11.80
2022-09-06T08:29:06.136Z,12.00
2022-09-06T08:31:35.526Z,14.07
2022-09-06T08:34:02.694Z,12.10
2022-09-06T08:36:30.581Z,12.27
2022-09-06T08:38:59.360Z,14.90
2022-09-06T08:42:12.676Z,13.23
2022-09-06T08:47:21.720Z,14.50
2022-09-06T08:50:10.396Z,12.60
2022-09-06T08:53:18.475Z,13.70
2022-09-06T08:56:18.474Z,17.02
2022-09-06T08:59:12.767Z,18.27
2022-09-06T09:02:21.862Z,18.00
2022-09-06T09:05:05.538Z,14.45
2022-09-06T09:09:14.277Z,17.37
2022-09-06T09:11:46.502Z,14.25
2022-09-06T09:14:26.608Z,14.68
2022-09-06T09:17:04.904Z,10.52
2022-09-06T09:19:35.906Z,11.05
2022-09-06T09:22:02.687Z,16.45
2022-09-06T09:24:30.637Z,12.70
2022-09-06T09:27:07.979Z,13.75
2022-09-06T09:32:59.697Z,13.68
2022-09-06T09:35:36.523Z,11.77
2022-09-06T09:38:29.431Z,11.88
2022-09-06T09:41:06.299Z,18.40
2022-09-06T09:43:41.700Z,11.98
2022-09-06T09:46:39.113Z,13.38
2022-09-06T09:49:28.434Z,14.45
2022-09-06T09:52:28.534Z,12.95
2022-09-06T09:55:06.472Z,16.40
2022-09-06T09:57:49.996Z,13.60
2022-09-06T10:00:42.443Z,13.95
2022-09-06T10:03:25.707Z,15.75
2022-09-06T10:06:02.746Z,11.30
2022-09-06T10:08:33.371Z,12.48
2022-09-06T10:11:00.213Z,11.48
2022-09-06T10:13:30.272Z,11.38
2022-09-06T10:15:59.441Z,10.88
2022-09-06T10:18:42.067Z,11.32
2022-09-06T10:21:21.492Z,11.57
2022-09-06T10:25:04.364Z,11.52
2022-09-06T10:27:32.501Z,10.55
2022-09-06T10:30:08.002Z,9.85
2022-09-06T10:35:38.949Z,10.85
2022-09-06T10:39:03.694Z,13.52
2022-09-06T10:45:52.818Z,12.30
2022-09-06T10:48:38.473Z,9.65
2022-09-06T10:51:21.485Z,12.68
2022-09-06T10:54:37.321Z,9.93
2022-09-06T10:59:58.571Z,10.55
2022-09-06T11:06:10.682Z,13.62
2022-09-06T11:10:23.306Z,14.75
2022-09-06T11:13:08.833Z,15.18
2022-09-06T11:16:33.232Z,15.45
2022-09-06T11:19:13.424Z,12.75
2022-09-06T11:26:03.891Z,12.55
2022-09-06T11:28:53.078Z,12.65
2022-09-06T11:34:37.690Z,11.60
2022-09-06T11:37:25.493Z,13.27
2022-09-06T11:40:29.921Z,15.02
2022-09-06T11:43:49.965Z,12.30
2022-09-06T11:51:21.042Z,13.32
2022-09-06T11:54:44.845Z,15.15
2022-09-06T11:57:21.008Z,11.43
2022-09-06T12:00:03.852Z,9.98
2022-09-06T12:02:41.321Z,11.63
2022-09-06T12:05:21.839Z,10.23
2022-09-06T12:12:11.463Z,10.60
2022-09-06T12:14:46.064Z,15.02
2022-09-06T12:17:24.175Z,9.95
2022-09-06T12:20:06.202Z,16.45
2022-09-06T12:22:54.035Z,16.65
2022-09-06T12:25:54.133Z,12.40
2022-09-06T12:28:32.461Z,12.80
2022-09-06T12:31:00.130Z,10.27
2022-09-06T12:33:38.103Z,10.68
2022-09-06T12:37:09.864Z,10.65
2022-09-06T12:39:36.889Z,11.57
2022-09-06T12:42:10.252Z,10.48
2022-09-06T12:44:50.249Z,11.35
2022-09-06T12:47:31.455Z,14.43
2022-09-06T12:52:19.415Z,11.00
2022-09-06T12:54:50.074Z,10.88
2022-09-06T12:57:23.832Z,10.55
2022-09-06T12:59:57.273Z,10.27
2022-09-06T13:02:45.390Z,10.95
2022-09-06T13:05:13.196Z,10.57
2022-09-06T13:07:55.048Z,10.43
2022-09-06T13:10:25.696Z,10.50
2022-09-06T13:12:55.413Z,11.88
2022-09-06T13:15:31.618Z,12.95
2022-09-06T13:20:59.556Z,14.07
2022-09-06T13:23:26.242Z,12.65
2022-09-06T13:25:55.285Z,12.20
2022-09-06T13:28:54.826Z,17.77
2022-09-06T13:31:21.812Z,13.27
2022-09-06T13:33:59.180Z,14.07
2022-09-06T13:36:33.050Z,11.45
2022-09-06T13:39:02.817Z,12.20
2022-09-06T13:41:37.709Z,46.25
2022-09-06T13:44:30.770Z,11.35
2022-09-06T13:46:58.330Z,15.23
2022-09-06T13:49:25.815Z,10.40
2022-09-06T13:51:57.322Z,11.20
2022-09-06T13:54:24.181Z,11.32
2022-09-06T13:56:50.873Z,12.57
2022-09-06T13:59:18.798Z,10.98
2022-09-06T14:02:06.951Z,11.32
2022-09-06T14:04:33.731Z,9.57
2022-09-06T14:07:00.243Z,16.12
2022-09-06T14:09:26.782Z,13.65
2022-09-06T14:11:53.318Z,11.00
2022-09-06T14:14:19.988Z,13.00
2022-09-06T14:16:47.174Z,14.50
2022-09-06T14:19:14.494Z,11.07
2022-09-06T14:21:41.259Z,10.13
2022-09-06T14:24:08.196Z,10.07
2022-09-06T14:26:36.557Z,10.95
2022-09-06T14:29:03.429Z,11.10
2022-09-06T14:31:31.814Z,17.10
2022-09-06T14:33:58.605Z,10.63
2022-09-06T14:36:30.943Z,8.25
2022-09-06T14:38:59.557Z,12.35
2022-09-06T14:41:26.129Z,9.00
2022-09-06T14:43:56.776Z,11.10
2022-09-06T14:46:25.699Z,9.77
2022-09-06T14:49:07.919Z,9.20
2022-09-06T14:51:36.185Z,10.55
2022-09-06T14:54:09.241Z,11.43
2022-09-06T14:56:37.472Z,8.93
2022-09-06T14:59:04.429Z,12.63
2022-09-06T15:01:38.061Z,9.65
2022-09-06T15:04:08.678Z,41.88
2022-09-06T15:06:38.465Z,12.68
2022-09-06T15:09:06.389Z,9.63
2022-09-06T15:11:41.125Z,10.32
2022-09-06T15:14:23.377Z,11.70
2022-09-06T15:16:55.636Z,10.27
2022-09-06T15:19:24.744Z,13.68
2022-09-06T15:21:52.003Z,11.55
2022-09-06T15:24:20.037Z,10.75
2022-09-06T15:26:46.585Z,11.02
2022-09-06T15:29:14.829Z,10.80
2022-09-06T15:31:42.714Z,9.65
2022-09-06T15:34:11.273Z,9.77
2022-09-06T15:36:38.108Z,10.20
2022-09-06T15:39:05.957Z,12.50
2022-09-06T15:41:36.688Z,11.35
2022-09-06T15:44:16.125Z,15.90
2022-09-06T15:46:56.885Z,9.18
2022-09-06T15:49:33.082Z,9.68
2022-09-06T15:52:01.892Z,11.85
2022-09-06T15:54:47.663Z,10.10
2022-09-06T15:57:16.059Z,10.15
2022-09-06T15:59:42.603Z,15.60
2022-09-06T16:02:09.658Z,11.88
2022-09-06T16:04:36.194Z,13.57
2022-09-06T16:07:03.074Z,11.85
2022-09-06T16:09:29.775Z,11.75
2022-09-06T16:11:56.300Z,11.05
2022-09-06T16:14:22.918Z,11.02
2022-09-06T16:16:51.369Z,11.00
2022-09-06T16:19:17.951Z,10.18
2022-09-06T16:21:44.501Z,11.05
2022-09-06T16:24:13.664Z,10.77
2022-09-06T16:26:44.104Z,10.82
2022-09-06T16:29:13.421Z,14.45
2022-09-06T16:31:40.926Z,12.85
2022-09-06T16:34:12.060Z,13.45
2022-09-06T16:36:39.423Z,12.07
2022-09-06T16:39:07.173Z,13.38
2022-09-06T16:41:43.546Z,11.40
2022-09-06T16:44:17.066Z,15.90
2022-09-06T16:46:46.618Z,13.38
2022-09-06T16:49:16.420Z,10.77
2022-09-06T16:51:43.989Z,12.60
2022-09-06T16:54:10.610Z,12.63
2022-09-06T16:56:38.225Z,12.00
2022-09-06T16:59:07.741Z,14.73
2022-09-06T17:01:36.723Z,13.95
2022-09-06T17:04:05.061Z,21.25
2022-09-06T17:06:37.605Z,15.40
2022-09-06T17:09:04.854Z,14.25
2022-09-06T17:11:31.370Z,17.95
2022-09-06T17:13:58.078Z,18.55
2022-09-06T17:16:43.647Z,21.08
2022-09-06T17:19:10.628Z,14.02
2022-09-06T17:21:39.301Z,16.17
2022-09-06T17:24:07.857Z,16.23
2022-09-06T17:26:38.430Z,13.85
2022-09-06T17:29:07.539Z,20.60
2022-09-06T17:31:34.804Z,18.27
2022-09-06T17:34:01.320Z,18.83
2022-09-06T17:36:31.167Z,15.02
2022-09-06T17:39:10.825Z,17.92
2022-09-06T17:41:42.015Z,18.02
2022-09-06T17:44:11.381Z,19.87
2022-09-06T17:46:47.645Z,14.07
2022-09-06T17:49:18.987Z,13.20
2022-09-06T17:51:46.434Z,15.20
2022-09-06T17:54:16.456Z,16.90
2022-09-06T17:56:43.332Z,15.20
2022-09-06T17:59:13.387Z,16.87
2022-09-06T18:01:41.793Z,17.73
2022-09-06T18:04:10.481Z,13.50
2022-09-06T18:06:40.876Z,13.40
2022-09-06T18:09:15.145Z,13.73
2022-09-06T18:11:45.190Z,19.80
2022-09-06T18:14:16.234Z,15.63
2022-09-06T18:16:46.207Z,15.25
2022-09-06T18:19:13.058Z,15.60
2022-09-06T18:21:40.302Z,14.38
2022-09-06T18:24:08.874Z,13.48
2022-09-06T18:26:36.541Z,13.25
2022-09-06T18:29:06.277Z,13.38
2022-09-06T18:31:32.849Z,12.52
2022-09-06T18:33:59.692Z,12.82
2022-09-06T18:36:31.769Z,14.82
2022-09-06T18:39:03.440Z,13.02
2022-09-06T18:41:49.461Z,11.43
2022-09-06T18:44:16.827Z,12.00
2022-09-06T18:46:44.017Z,15.88
2022-09-06T18:49:12.788Z,12.48
2022-09-06T18:51:39.958Z,10.35
2022-09-06T18:54:07.084Z,9.88
2022-09-06T18:56:33.799Z,18.33
2022-09-06T18:59:01.401Z,9.77
2022-09-06T19:01:29.905Z,8.20
2022-09-06T19:03:58.679Z,11.10
2022-09-06T19:06:27.779Z,9.23
2022-09-06T19:08:59.371Z,8.50
2022-09-06T19:11:26.672Z,7.75
2022-09-06T19:13:55.877Z,12.00
2022-09-06T19:16:24.794Z,8.15
2022-09-06T19:18:54.398Z,7.65
2022-09-06T19:21:22.534Z,8.15
2022-09-06T19:23:57.675Z,8.95
2022-09-06T19:26:26.753Z,7.62
2022-09-06T19:28:59.694Z,6.70
2022-09-06T19:31:30.539Z,7.40
2022-09-06T19:33:58.512Z,10.23
2022-09-06T19:36:27.619Z,9.48
2022-09-06T19:39:06.787Z,7.95
2022-09-06T19:41:40.960Z,6.95
2022-09-06T19:44:10.112Z,6.45
2022-09-06T19:46:37.667Z,4.65
2022-09-06T19:49:07.432Z,6.32
2022-09-06T19:51:35.568Z,6.47
2022-09-06T19:54:02.945Z,5.43
2022-09-06T19:56:35.417Z,4.80
2022-09-06T19:59:08.231Z,5.25
2022-09-06T20:01:37.689Z,11.12
2022-09-06T20:04:07.581Z,7.37
2022-09-06T20:06:35.012Z,5.53
2022-09-06T20:09:04.876Z,9.50
2022-09-06T20:11:33.895Z,5.47
2022-09-06T20:14:00.952Z,6.28
2022-09-06T20:16:29.635Z,6.28
2022-09-06T20:18:58.289Z,6.25
2022-09-06T20:21:28.944Z,8.70
2022-09-06T20:23:58.488Z,9.60
2022-09-06T20:26:28.418Z,8.52
2022-09-06T20:28:58.936Z,6.70
2022-09-06T20:31:27.583Z,7.43
2022-09-06T20:33:54.913Z,6.43
2022-09-06T20:36:21.448Z,6.68
2022-09-06T20:38:48.749Z,6.95
2022-09-06T20:41:22.879Z,7.00
2022-09-06T20:43:57.904Z,7.70
2022-09-06T20:46:29.132Z,6.80
2022-09-06T20:48:58.980Z,6.50
2022-09-06T20:51:28.870Z,8.85
2022-09-06T20:53:59.513Z,9.88
2022-09-06T20:56:33.065Z,7.57
2022-09-06T20:59:03.856Z,6.78
2022-09-06T21:01:34.245Z,6.50
2022-09-06T21:04:04.093Z,9.88
2022-09-06T21:06:35.445Z,8.63
2022-09-06T21:09:05.162Z,12.13
2022-09-06T21:11:32.226Z,11.48
2022-09-06T21:13:58.801Z,8.88
2022-09-06T21:16:28.442Z,8.77
2022-09-06T21:18:58.785Z,13.38
2022-09-06T21:21:27.078Z,9.75
2022-09-06T21:23:53.990Z,8.10
2022-09-06T21:26:21.618Z,9.43
2022-09-06T21:28:52.350Z,8.73
2022-09-06T21:31:25.445Z,8.80
2022-09-06T21:33:55.148Z,20.00
2022-09-06T21:36:33.167Z,7.95
2022-09-06T21:39:04.250Z,10.75
2022-09-06T21:41:33.663Z,15.70
2022-09-06T21:44:02.532Z,8.57
2022-09-06T21:46:33.790Z,8.40
2022-09-06T21:49:04.329Z,10.75
2022-09-06T21:51:31.883Z,11.27
2022-09-06T21:54:02.432Z,9.77
2022-09-06T21:56:29.339Z,10.50
2022-09-06T21:58:57.780Z,13.60
2022-09-06T22:01:28.195Z,9.35
2022-09-06T22:03:54.812Z,14.95
2022-09-06T22:06:24.914Z,11.55
2022-09-06T22:08:53.319Z,9.05
2022-09-06T22:11:23.675Z,11.93
2022-09-06T22:13:51.116Z,10.63
2022-09-06T22:16:21.748Z,11.68
2022-09-06T22:18:49.311Z,8.63
2022-09-06T22:21:20.409Z,10.93
2022-09-06T22:23:59.446Z,12.82
2022-09-06T22:26:28.886Z,13.70
2022-09-06T22:29:01.655Z,9.13
2022-09-06T22:31:31.705Z,9.55
2022-09-06T22:33:59.086Z,13.43
2022-09-06T22:36:26.506Z,8.63
2022-09-06T22:38:56.522Z,8.80
2022-09-06T22:41:28.293Z,11.50
2022-09-06T22:43:55.695Z,12.45
2022-09-06T22:46:22.449Z,9.10
2022-09-06T22:48:49.025Z,11.43
2022-09-06T22:51:15.711Z,13.20
2022-09-06T22:53:42.239Z,12.88
2022-09-06T22:56:08.976Z,17.92
2022-09-06T22:58:35.481Z,13.25
2022-09-06T23:01:11.085Z,11.43
2022-09-06T23:03:38.718Z,11.25
2022-09-06T23:06:06.142Z,15.45
2022-09-06T23:08:36.361Z,8.57
2022-09-06T23:11:10.976Z,11.70
2022-09-06T23:13:37.952Z,11.73
2022-09-06T23:16:09.556Z,14.13
2022-09-06T23:18:36.327Z,9.85
2022-09-06T23:21:08.371Z,10.20
2022-09-06T23:23:37.674Z,9.85
2022-09-06T23:26:13.294Z,12.02
2022-09-06T23:28:40.007Z,9.15
2022-09-06T23:31:14.086Z,11.38
2022-09-06T23:33:41.628Z,11.23
2022-09-06T23:36:13.981Z,8.23
2022-09-06T23:38:41.952Z,9.77
2022-09-06T23:41:09.563Z,13.40
2022-09-06T23:43:37.020Z,11.12
2022-09-06T23:46:04.360Z,11.63
2022-09-06T23:48:30.981Z,14.23
2022-09-06T23:50:57.676Z,10.90
2022-09-06T23:53:24.400Z,8.10
2022-09-06T23:55:51.122Z,11.02
2022-09-06T23:58:17.642Z,7.72
